TimeCET,TemperatureF,Dew PointF,Humidity,Sea Level PressureIn,VisibilityMPH,Wind Direction,Wind SpeedMPH,Gust SpeedMPH,PrecipitationIn,Events,Conditions,WindDirDegrees,DateUTC
12:25 AM,51.8,50.0,94,30.01,3.1,WNW,16.1,-,N/A,Rain,Light Drizzle,290,2012-11-06 23:25:00
12:55 AM,51.8,50.0,94,30.01,2.5,WNW,16.1,-,N/A,,Light Drizzle,290,2012-11-06 23:55:00
1:00 AM,51,50,95,30.04,2,WNW,15.7,,,Rain,Drizzle,290,2012-11-07 00:00:00
1:25 AM,51.8,50.0,94,30.04,3.1,WNW,15.0,-,N/A,,Light Drizzle,290,2012-11-07 00:25:00
1:55 AM,51.8,50.0,94,30.04,5.0,WNW,16.1,-,N/A,,Light Drizzle,290,2012-11-07 00:55:00
2:25 AM,51.8,50.0,94,30.04,2.5,WNW,15.0,-,N/A,,Light Drizzle,290,2012-11-07 01:25:00
2:55 AM,51.8,50.0,94,30.06,6.2,WNW,15.0,-,N/A,,Mostly Cloudy,290,2012-11-07 01:55:00
3:25 AM,51.8,50.0,94,30.06,6.2,WNW,12.7,-,N/A,,Mostly Cloudy,290,2012-11-07 02:25:00
3:55 AM,51.8,50.0,94,30.06,6.2,WNW,13.8,-,N/A,,Mostly Cloudy,290,2012-11-07 02:55:00
4:00 AM,52,50,89,30.09,9,WNW,13.4,,,,Partly Cloudy,290,2012-11-07 03:00:00
4:25 AM,51.8,50.0,94,30.06,6.2,WNW,12.7,-,N/A,,Mostly Cloudy,290,2012-11-07 03:25:00
4:55 AM,51.8,50.0,94,30.09,6.2,WNW,12.7,-,N/A,,Mostly Cloudy,290,2012-11-07 03:55:00
5:25 AM,51.8,50.0,94,30.09,6.2,WNW,12.7,-,N/A,,Mostly Cloudy,290,2012-11-07 04:25:00
5:55 AM,51.8,50.0,94,30.09,6.2,WNW,12.7,-,N/A,,Mostly Cloudy,290,2012-11-07 04:55:00
6:25 AM,51.8,50.0,94,30.09,6.2,West,10.4,-,N/A,,Mostly Cloudy,280,2012-11-07 05:25:00
6:55 AM,51.8,50.0,94,30.12,3.7,West,11.5,-,N/A,,Light Drizzle,280,2012-11-07 05:55:00
7:00 AM,51,50,93,30.14,3,West,13.4,,,,Mist,280,2012-11-07 06:00:00
7:25 AM,50.0,50.0,100,30.12,4.3,WNW,10.4,-,N/A,,Light Drizzle,290,2012-11-07 06:25:00
7:55 AM,50.0,50.0,100,30.12,5.6,West,9.2,-,N/A,,Light Drizzle,270,2012-11-07 06:55:00
8:25 AM,50.0,50.0,100,30.15,3.1,West,11.5,-,N/A,,Light Drizzle,280,2012-11-07 07:25:00
8:55 AM,50.0,50.0,100,30.15,3.7,West,11.5,-,N/A,,Light Drizzle,280,2012-11-07 07:55:00
9:25 AM,50.0,50.0,100,30.15,4.3,West,10.4,-,N/A,,Light Drizzle,270,2012-11-07 08:25:00
9:55 AM,50.0,50.0,100,30.15,5.6,West,11.5,-,N/A,,Light Drizzle,270,2012-11-07 08:55:00
10:00 AM,51,49,90,30.18,4,West,11.2,,,,Mist,260,2012-11-07 09:00:00
10:25 AM,51.8,48.2,88,30.18,6.2,WSW,12.7,-,N/A,,Mostly Cloudy,250,2012-11-07 09:25:00
10:55 AM,51.8,48.2,88,30.15,6.2,WSW,12.7,-,N/A,,Mostly Cloudy,250,2012-11-07 09:55:00
11:25 AM,51.8,48.2,88,30.18,6.2,WSW,17.3,-,N/A,,Mostly Cloudy,250,2012-11-07 10:25:00
11:55 AM,51.8,46.4,82,30.18,6.2,WSW,17.3,-,N/A,,Mostly Cloudy,250,2012-11-07 10:55:00
12:25 PM,51.8,46.4,82,30.18,6.2,WSW,17.3,-,N/A,,Mostly Cloudy,250,2012-11-07 11:25:00
12:55 PM,51.8,46.4,82,30.18,6.2,WSW,17.3,-,N/A,,Mostly Cloudy,250,2012-11-07 11:55:00
1:00 PM,51,46,76,30.20,9,WSW,17.9,,,,Partly Cloudy,250,2012-11-07 12:00:00
1:25 PM,51.8,44.6,76,30.18,6.2,West,18.4,-,N/A,,Mostly Cloudy,260,2012-11-07 12:25:00
1:55 PM,51.8,44.6,76,30.18,6.2,WSW,17.3,-,N/A,,Mostly Cloudy,250,2012-11-07 12:55:00
2:25 PM,51.8,44.6,76,30.18,6.2,West,17.3,-,N/A,,Mostly Cloudy,260,2012-11-07 13:25:00
2:55 PM,51.8,42.8,71,30.18,6.2,WSW,17.3,-,N/A,,Mostly Cloudy,250,2012-11-07 13:55:00
3:25 PM,50.0,44.6,82,30.18,6.2,WSW,16.1,-,N/A,,Mostly Cloudy,250,2012-11-07 14:25:00
3:55 PM,50.0,42.8,76,30.18,6.2,WSW,13.8,-,N/A,,Mostly Cloudy,250,2012-11-07 14:55:00
4:00 PM,50,43,70,30.19,9,WSW,13.4,,,,Scattered Clouds,240,2012-11-07 15:00:00
4:25 PM,50.0,44.6,82,30.15,6.2,SW,15.0,-,N/A,,Mostly Cloudy,230,2012-11-07 15:25:00
4:55 PM,50.0,42.8,76,30.15,6.2,WSW,15.0,-,N/A,,Mostly Cloudy,250,2012-11-07 15:55:00
5:25 PM,50.0,42.8,76,30.15,6.2,WSW,16.1,-,N/A,,Mostly Cloudy,240,2012-11-07 16:25:00
5:55 PM,50.0,42.8,76,30.18,6.2,WSW,13.8,-,N/A,,Mostly Cloudy,250,2012-11-07 16:55:00
6:25 PM,50.0,44.6,82,30.18,6.2,WSW,12.7,-,N/A,,Mostly Cloudy,240,2012-11-07 17:25:00
6:55 PM,50.0,44.6,82,30.18,6.2,WSW,12.7,-,N/A,,Mostly Cloudy,240,2012-11-07 17:55:00
7:00 PM,50,44,71,30.18,9,WSW,15.7,,,,Partly Cloudy,240,2012-11-07 18:00:00
7:25 PM,50.0,42.8,76,30.15,6.2,WSW,13.8,-,N/A,,Mostly Cloudy,240,2012-11-07 18:25:00
7:55 PM,50.0,44.6,82,30.15,6.2,WSW,12.7,-,N/A,,Mostly Cloudy,240,2012-11-07 18:55:00
8:25 PM,50.0,44.6,82,30.15,6.2,WSW,13.8,-,N/A,,Mostly Cloudy,240,2012-11-07 19:25:00
8:55 PM,50.0,44.6,82,30.15,6.2,WSW,13.8,-,N/A,,Mostly Cloudy,240,2012-11-07 19:55:00
9:25 PM,51.8,44.6,76,30.15,6.2,WSW,15.0,-,N/A,,Mostly Cloudy,250,2012-11-07 20:25:00
9:55 PM,50.0,42.8,76,30.15,6.2,WSW,16.1,-,N/A,,Mostly Cloudy,250,2012-11-07 20:55:00
10:00 PM,51,43,67,30.16,11,WSW,15.7,,,,Partly Cloudy,240,2012-11-07 21:00:00
10:25 PM,50.0,44.6,82,30.15,6.2,WSW,15.0,-,N/A,,Mostly Cloudy,250,2012-11-07 21:25:00
10:55 PM,50.0,44.6,82,30.12,6.2,WSW,15.0,-,N/A,,Mostly Cloudy,250,2012-11-07 21:55:00
11:25 PM,50.0,42.8,76,30.12,6.2,WSW,17.3,-,N/A,,Mostly Cloudy,250,2012-11-07 22:25:00
11:55 PM,50.0,42.8,76,30.12,6.2,WSW,16.1,-,N/A,,Mostly Cloudy,240,2012-11-07 22:55:00